createdAt,value
2023-03-26T00:01:02.039Z,100670.69
2023-03-26T00:03:30.028Z,100675.28
2023-03-26T00:06:12.905Z,100665.53
2023-03-26T00:08:41.902Z,100670.16
2023-03-26T00:11:10.434Z,100663.91
2023-03-26T00:13:37.222Z,100657.91
2023-03-26T00:16:04.831Z,100667.19
2023-03-26T00:18:31.651Z,100662.56
2023-03-26T00:20:59.597Z,100655.50
2023-03-26T00:23:28.336Z,100648.44
2023-03-26T00:25:56.126Z,100651.97
2023-03-26T00:28:24.403Z,100643.53
2023-03-26T00:30:58.755Z,100632.94
2023-03-26T00:33:25.406Z,100638.91
2023-03-26T00:35:54.122Z,100620.97
2023-03-26T00:38:24.916Z,100627.50
2023-03-26T00:40:51.888Z,100615.03
2023-03-26T00:43:19.905Z,100615.03
2023-03-26T00:45:52.935Z,100610.94
2023-03-26T00:48:26.291Z,100611.75
2023-03-26T00:50:58.159Z,100612.88
2023-03-26T00:53:24.657Z,100605.50
2023-03-26T00:55:51.657Z,100605.78
2023-03-26T00:58:18.282Z,100603.06
2023-03-26T01:00:57.334Z,100612.31
2023-03-26T01:03:27.514Z,100620.22
2023-03-26T01:06:08.538Z,100609.34
2023-03-26T01:08:46.790Z,100596.00
2023-03-26T01:11:21.740Z,100589.78
2023-03-26T01:13:56.063Z,100595.19
2023-03-26T01:16:37.203Z,100586.25
2023-03-26T01:19:12.944Z,100578.31
2023-03-26T01:21:39.816Z,100577.53
2023-03-26T01:24:09.030Z,100571.28
2023-03-26T01:26:57.315Z,100571.28
2023-03-26T01:29:31.675Z,100563.13
2023-03-26T01:32:12.228Z,100564.53
2023-03-26T01:34:47.069Z,100549.84
2023-03-26T01:37:20.977Z,100551.75
2023-03-26T01:40:06.953Z,100548.47
2023-03-26T01:42:48.058Z,100542.00
2023-03-26T01:45:19.019Z,100540.06
2023-03-26T01:47:46.323Z,100535.75
2023-03-26T01:50:13.086Z,100546.31
2023-03-26T01:52:39.935Z,100541.44
2023-03-26T01:55:11.661Z,100542.53
2023-03-26T01:58:05.357Z,100535.44
2023-03-26T02:00:36.857Z,100536.56
2023-03-26T02:03:26.455Z,100533.03
2023-03-26T02:06:25.828Z,100517.84
2023-03-26T02:08:59.062Z,100510.50
2023-03-26T02:11:34.703Z,100504.50
2023-03-26T02:14:03.272Z,100505.63
2023-03-26T02:16:29.798Z,100502.09
2023-03-26T02:18:56.373Z,100493.94
2023-03-26T02:21:26.159Z,100496.34
2023-03-26T02:24:03.229Z,100493.66
2023-03-26T02:26:32.215Z,100480.34
2023-03-26T02:28:59.264Z,100482.53
2023-03-26T02:31:26.471Z,100482.53
2023-03-26T02:33:55.515Z,100479.81
2023-03-26T02:36:27.598Z,100486.91
2023-03-26T02:38:55.552Z,100477.63
2023-03-26T02:41:22.150Z,100475.19
2023-03-26T02:43:48.818Z,100476.28
2023-03-26T02:46:15.649Z,100468.94
2023-03-26T02:48:42.955Z,100472.75
2023-03-26T02:51:09.681Z,100462.72
2023-03-26T02:53:37.551Z,100464.31
2023-03-26T02:56:04.624Z,100464.63
2023-03-26T02:58:31.231Z,100465.72
2023-03-26T03:00:57.857Z,100451.03
2023-03-26T03:03:26.490Z,100462.19
2023-03-26T03:05:57.228Z,100454.03
2023-03-26T03:08:26.755Z,100454.31
2023-03-26T03:11:01.552Z,100445.34
2023-03-26T03:13:28.825Z,100443.75
2023-03-26T03:15:56.078Z,100439.13
2023-03-26T03:18:22.974Z,100439.13
2023-03-26T03:20:49.943Z,100433.69
2023-03-26T03:23:17.194Z,100423.91
2023-03-26T03:25:43.913Z,100421.47
2023-03-26T03:28:11.196Z,100417.13
2023-03-26T03:30:37.788Z,100416.03
2023-03-26T03:33:06.104Z,100407.88
2023-03-26T03:35:33.623Z,100410.91
2023-03-26T03:38:00.904Z,100401.66
2023-03-26T03:40:27.602Z,100403.84
2023-03-26T03:42:54.125Z,100405.47
2023-03-26T03:45:20.675Z,100407.88
2023-03-26T03:47:47.163Z,100401.66
2023-03-26T03:50:13.710Z,100393.78
2023-03-26T03:52:40.277Z,100388.38
2023-03-26T03:55:06.982Z,100385.91
2023-03-26T03:57:34.656Z,100379.69
2023-03-26T04:00:01.431Z,100378.06
2023-03-26T04:02:34.787Z,100376.16
2023-03-26T04:05:02.765Z,100377.75
2023-03-26T04:07:33.761Z,100377.50
2023-03-26T04:10:02.899Z,100373.38
2023-03-26T04:12:31.091Z,100364.16
2023-03-26T04:14:58.534Z,100365.47
2023-03-26T04:17:25.368Z,100353.47
2023-03-26T04:19:55.156Z,100344.22
2023-03-26T04:22:22.567Z,100337.41
2023-03-26T04:24:50.249Z,100338.75
2023-03-26T04:27:20.210Z,100338.47
2023-03-26T04:29:49.792Z,100324.56
2023-03-26T04:32:34.109Z,100324.56
2023-03-26T04:35:04.096Z,100320.50
2023-03-26T04:37:36.078Z,100313.13
2023-03-26T04:40:10.547Z,100316.66
2023-03-26T04:42:41.555Z,100308.50
2023-03-26T04:45:08.878Z,100312.34
2023-03-26T04:47:36.957Z,100294.13
2023-03-26T04:50:05.314Z,100296.84
2023-03-26T04:52:31.796Z,100277.81
2023-03-26T04:54:58.369Z,100280.03
2023-03-26T04:57:33.956Z,100273.78
2023-03-26T05:00:00.741Z,100284.66
2023-03-26T05:02:27.212Z,100262.09
2023-03-26T05:04:53.854Z,100259.09
2023-03-26T05:07:23.802Z,100255.28
2023-03-26T05:09:50.693Z,100241.38
2023-03-26T05:12:17.256Z,100254.44
2023-03-26T05:14:43.727Z,100258.25
2023-03-26T05:17:14.962Z,100250.63
2023-03-26T05:19:41.820Z,100247.91
2023-03-26T05:22:08.392Z,100246.00
2023-03-26T05:24:34.929Z,100241.66
2023-03-26T05:27:01.520Z,100240.56
2023-03-26T05:29:28.051Z,100244.38
2023-03-26T05:31:54.548Z,100240.56
2023-03-26T05:34:24.144Z,100237.84
2023-03-26T05:36:50.689Z,100230.78
2023-03-26T05:39:17.188Z,100229.97
2023-03-26T05:41:43.726Z,100231.88
2023-03-26T05:44:10.239Z,100224.53
2023-03-26T05:46:36.944Z,100232.44
2023-03-26T05:49:03.486Z,100228.59
2023-03-26T05:51:29.967Z,100221.25
2023-03-26T05:53:56.444Z,100230.50
2023-03-26T05:56:23.034Z,100231.31
2023-03-26T05:58:51.490Z,100232.13
2023-03-26T06:01:19.657Z,100230.50
2023-03-26T06:03:47.211Z,100225.88
2023-03-26T06:06:16.619Z,100229.41
2023-03-26T06:08:48.846Z,100219.63
2023-03-26T06:11:29.462Z,100228.59
2023-03-26T06:13:55.975Z,100228.59
2023-03-26T06:16:27.319Z,100222.06
2023-03-26T06:18:56.970Z,100211.50
2023-03-26T06:21:27.632Z,100212.28
2023-03-26T06:23:54.753Z,100215.00
2023-03-26T06:26:21.492Z,100205.25
2023-03-26T06:28:48.165Z,100208.47
2023-03-26T06:31:14.958Z,100199.50
2023-03-26T06:33:41.447Z,100203.84
2023-03-26T06:36:08.344Z,100210.13
2023-03-26T06:38:34.889Z,100208.47
2023-03-26T06:41:07.245Z,100208.78
2023-03-26T06:43:33.965Z,100213.09
2023-03-26T06:46:04.439Z,100203.03
2023-03-26T06:48:31.381Z,100207.41
2023-03-26T06:50:58.122Z,100206.56
2023-03-26T06:53:24.778Z,100199.50
2023-03-26T06:55:53.374Z,100201.13
2023-03-26T06:58:20.440Z,100200.63
2023-03-26T07:00:47.256Z,100197.59
2023-03-26T07:03:13.859Z,100193.28
2023-03-26T07:05:43.284Z,100196.78
2023-03-26T07:08:09.882Z,100195.69
2023-03-26T07:10:36.408Z,100198.72
2023-03-26T07:13:02.902Z,100197.59
2023-03-26T07:15:29.448Z,100185.94
2023-03-26T07:17:56.553Z,100186.72
2023-03-26T07:20:23.771Z,100190.25
2023-03-26T07:22:51.635Z,100185.94
2023-03-26T07:25:19.071Z,100192.16
2023-03-26T07:27:58.996Z,100175.88
2023-03-26T07:30:50.598Z,100173.69
2023-03-26T07:33:35.637Z,100179.38
2023-03-26T07:36:11.182Z,100182.09
2023-03-26T07:38:52.874Z,100189.44
2023-03-26T07:41:28.997Z,100180.50
2023-03-26T07:44:29.639Z,100180.50
2023-03-26T07:46:57.194Z,100182.09
2023-03-26T07:49:24.017Z,100194.88
2023-03-26T07:51:50.856Z,100203.03
2023-03-26T07:54:17.657Z,100192.47
2023-03-26T07:57:06.677Z,100197.91
2023-03-26T07:59:51.554Z,100189.75
2023-03-26T08:02:41.328Z,100191.34
2023-03-26T08:05:19.857Z,100183.22
2023-03-26T08:08:05.735Z,100196.78
2023-03-26T08:10:42.304Z,100194.06
2023-03-26T08:13:26.996Z,100187.84
2023-03-26T08:16:05.485Z,100189.44
2023-03-26T08:18:54.688Z,100190.25
2023-03-26T08:21:28.659Z,100189.44
2023-03-26T08:23:59.115Z,100196.53
2023-03-26T08:26:32.322Z,100186.72
2023-03-26T08:29:05.090Z,100186.47
2023-03-26T08:31:35.244Z,100185.13
2023-03-26T08:34:02.396Z,100192.16
2023-03-26T08:36:29.617Z,100190.25
2023-03-26T08:38:57.511Z,100188.06
2023-03-26T08:42:01.075Z,100187.25
2023-03-26T08:44:58.113Z,100192.69
2023-03-26T08:48:03.704Z,100191.91
2023-03-26T08:50:56.514Z,100195.41
2023-03-26T08:53:41.880Z,100205.75
2023-03-26T08:56:24.177Z,100197.31
2023-03-26T08:59:28.094Z,100192.97
2023-03-26T09:02:26.050Z,100194.88
2023-03-26T09:05:46.788Z,100197.31
2023-03-26T09:08:13.212Z,100190.25
2023-03-26T09:10:48.659Z,100186.47
2023-03-26T09:13:36.135Z,100196.53
2023-03-26T09:16:14.830Z,100195.69
2023-03-26T09:19:03.831Z,100197.31
2023-03-26T09:22:07.566Z,100188.06
2023-03-26T09:25:18.415Z,100204.06
2023-03-26T09:27:47.974Z,100199.44
2023-03-26T09:30:34.224Z,100199.44
2023-03-26T09:33:38.530Z,100202.16
2023-03-26T09:36:11.042Z,100203.00
2023-03-26T09:38:44.862Z,100207.31
2023-03-26T09:41:22.258Z,100203.78
2023-03-26T09:44:17.901Z,100209.22
2023-03-26T09:47:12.353Z,100206.22
2023-03-26T09:49:53.635Z,100215.16
2023-03-26T09:52:44.298Z,100220.34
2023-03-26T09:55:21.178Z,100221.94
2023-03-26T09:58:11.042Z,100220.84
2023-03-26T10:00:48.283Z,100223.50
2023-03-26T10:03:36.339Z,100227.53
2023-03-26T10:06:20.176Z,100220.72
2023-03-26T10:09:04.015Z,100227.47
2023-03-26T10:12:16.866Z,100226.38
2023-03-26T10:15:17.727Z,100230.41
2023-03-26T10:18:26.673Z,100243.41
2023-03-26T10:21:03.613Z,100231.94
2023-03-26T10:23:39.191Z,100239.00
2023-03-26T10:26:24.469Z,100243.06
2023-03-26T10:29:28.780Z,100240.88
2023-03-26T10:32:17.742Z,100249.81
2023-03-26T10:34:53.170Z,100256.06
2023-03-26T10:37:35.355Z,100258.78
2023-03-26T10:40:08.413Z,100260.69
2023-03-26T10:42:48.022Z,100266.13
2023-03-26T10:45:45.332Z,100265.34
2023-03-26T10:48:23.945Z,100270.78
2023-03-26T10:51:22.637Z,100266.13
2023-03-26T10:53:54.616Z,100273.78
2023-03-26T10:56:40.955Z,100280.31
2023-03-26T10:59:12.386Z,100281.13
2023-03-26T11:02:00.447Z,100276.78
2023-03-26T11:04:49.616Z,100291.19
2023-03-26T11:07:25.320Z,100282.50
2023-03-26T11:09:58.281Z,100294.50
2023-03-26T11:12:39.896Z,100286.34
2023-03-26T11:15:32.978Z,100296.41
2023-03-26T11:18:12.185Z,100299.41
2023-03-26T11:21:19.105Z,100302.16
2023-03-26T11:24:06.871Z,100312.47
2023-03-26T11:26:56.064Z,100307.84
2023-03-26T11:29:38.760Z,100314.94
2023-03-26T11:32:12.744Z,100333.97
2023-03-26T11:34:45.359Z,100329.31
2023-03-26T11:37:18.857Z,100324.16
2023-03-26T11:39:56.466Z,100329.59
2023-03-26T11:42:24.680Z,100345.91
2023-03-26T11:45:05.022Z,100335.84
2023-03-26T11:47:46.574Z,100340.47
2023-03-26T11:50:24.979Z,100341.28
2023-03-26T11:52:51.617Z,100353.25
2023-03-26T11:55:18.094Z,100354.59
2023-03-26T11:57:54.885Z,100356.50
2023-03-26T12:00:24.010Z,100364.94
2023-03-26T12:02:56.991Z,100374.75
2023-03-26T12:05:36.632Z,100388.84
2023-03-26T12:08:17.909Z,100389.16
2023-03-26T12:10:45.050Z,100389.16
2023-03-26T12:13:21.449Z,100389.41
2023-03-26T12:15:48.276Z,100392.13
2023-03-26T12:18:24.869Z,100394.84
2023-03-26T12:21:08.296Z,100399.47
2023-03-26T12:23:52.452Z,100401.41
2023-03-26T12:26:41.250Z,100403.31
2023-03-26T12:29:16.500Z,100413.38
2023-03-26T12:31:50.554Z,100412.56
2023-03-26T12:34:20.678Z,100412.56
2023-03-26T12:37:00.117Z,100410.66
2023-03-26T12:40:10.817Z,100425.31
2023-03-26T12:44:48.223Z,100435.13
2023-03-26T12:45:22.590Z,100429.69
2023-03-26T12:47:59.881Z,100435.94
2023-03-26T12:50:42.728Z,100441.06
2023-03-26T12:53:26.724Z,100432.09
2023-03-26T12:56:11.267Z,100437.84
2023-03-26T12:58:43.964Z,100440.56
2023-03-26T13:01:52.669Z,100444.59
2023-03-26T13:04:34.281Z,100441.06
2023-03-26T13:07:28.106Z,100453.84
2023-03-26T13:10:20.837Z,100446.25
2023-03-26T13:13:29.055Z,100450.88
2023-03-26T13:16:13.021Z,100452.47
2023-03-26T13:19:14.717Z,100457.38
2023-03-26T13:22:01.449Z,100465.53
2023-03-26T13:24:34.603Z,100456.56
2023-03-26T13:27:10.222Z,100473.44
2023-03-26T13:30:02.425Z,100474.50
2023-03-26T13:32:42.618Z,100469.06
2023-03-26T13:35:25.679Z,100472.88
2023-03-26T13:38:01.530Z,100486.47
2023-03-26T13:40:59.117Z,100486.47
2023-03-26T13:43:34.666Z,100481.03
2023-03-26T13:46:10.411Z,100494.63
2023-03-26T13:48:47.422Z,100486.22
2023-03-26T13:51:52.282Z,100494.63
2023-03-26T13:54:32.431Z,100493.53
2023-03-26T13:57:29.530Z,100497.34
2023-03-26T14:00:03.196Z,100498.16
2023-03-26T14:02:36.123Z,100509.03
2023-03-26T14:05:19.580Z,100502.53
2023-03-26T14:08:11.050Z,100510.38
2023-03-26T14:10:43.079Z,100506.06
2023-03-26T14:13:26.840Z,100513.41
2023-03-26T14:16:03.207Z,100518.84
2023-03-26T14:18:30.711Z,100525.09
2023-03-26T14:21:26.250Z,100522.38
2023-03-26T14:23:55.634Z,100530.22
2023-03-26T14:26:59.362Z,100540.81
2023-03-26T14:29:56.195Z,100533.50
2023-03-26T14:32:33.358Z,100527.22
2023-03-26T14:35:05.576Z,100531.03
2023-03-26T14:37:58.469Z,100541.09
2023-03-26T14:40:44.222Z,100540.31
2023-03-26T14:43:48.796Z,100543.81
2023-03-26T14:46:33.675Z,100553.09
2023-03-26T14:49:46.095Z,100554.69
2023-03-26T14:52:22.311Z,100560.13
2023-03-26T14:54:53.631Z,100563.97
2023-03-26T14:57:20.062Z,100577.56
2023-03-26T15:00:02.839Z,100583.81
2023-03-26T15:02:53.961Z,100584.09
2023-03-26T15:05:47.917Z,100591.41
2023-03-26T15:08:51.664Z,100609.63
2023-03-26T15:11:39.601Z,100605.00
2023-03-26T15:14:34.159Z,100615.06
2023-03-26T15:17:09.472Z,100614.28
2023-03-26T15:19:36.880Z,100617.28
2023-03-26T15:22:22.032Z,100631.69
2023-03-26T15:25:07.603Z,100623.53
2023-03-26T15:28:00.120Z,100636.31
2023-03-26T15:30:58.040Z,100640.09
2023-03-26T15:34:02.949Z,100643.66
2023-03-26T15:36:38.540Z,100666.50
2023-03-26T15:39:58.938Z,100671.94
2023-03-26T15:42:47.175Z,100681.47
2023-03-26T15:45:42.160Z,100684.19
2023-03-26T15:48:12.029Z,100687.47
2023-03-26T15:51:09.245Z,100693.72
2023-03-26T15:53:53.767Z,100692.91
2023-03-26T15:56:49.178Z,100700.25
2023-03-26T15:59:34.799Z,100704.88
2023-03-26T16:02:07.655Z,100709.22
2023-03-26T16:04:52.676Z,100704.59
2023-03-26T16:07:26.358Z,100714.66
2023-03-26T16:09:52.831Z,100739.13
2023-03-26T16:12:46.870Z,100735.31
2023-03-26T16:15:23.895Z,100744.56
2023-03-26T16:18:10.223Z,100745.38
2023-03-26T16:20:54.950Z,100757.06
2023-03-26T16:23:28.557Z,100769.03
2023-03-26T16:26:25.544Z,100760.88
2023-03-26T16:28:55.040Z,100780.72
2023-03-26T16:31:37.321Z,100779.91
2023-03-26T16:34:07.119Z,100794.31
2023-03-26T16:36:35.540Z,100788.06
2023-03-26T16:39:08.469Z,100804.63
2023-03-26T16:41:50.159Z,100806.28
2023-03-26T16:44:41.114Z,100810.34
2023-03-26T16:47:38.733Z,100821.50
2023-03-26T16:50:20.205Z,100822.59
2023-03-26T16:52:58.732Z,100820.13
2023-03-26T16:55:34.480Z,100829.09
2023-03-26T16:58:36.841Z,100843.53
2023-03-26T17:01:09.889Z,100842.69
2023-03-26T17:03:57.850Z,100842.69
2023-03-26T17:06:56.764Z,100871.53
2023-03-26T17:09:46.637Z,100868.00
2023-03-26T17:12:31.935Z,100870.16
2023-03-26T17:15:13.769Z,100870.16
2023-03-26T17:18:27.416Z,100882.94
2023-03-26T17:21:13.800Z,100889.47
2023-03-26T17:23:54.158Z,100907.41
2023-03-26T17:26:23.966Z,100889.75
2023-03-26T17:29:18.398Z,100918.28
2023-03-26T17:32:00.433Z,100917.47
2023-03-26T17:34:32.964Z,100923.16
2023-03-26T17:37:00.998Z,100928.91
2023-03-26T17:40:12.209Z,100933.25
2023-03-26T17:42:38.982Z,100935.16
2023-03-26T17:45:23.413Z,100947.94
2023-03-26T17:47:54.101Z,100952.56
2023-03-26T17:50:26.596Z,100956.09
2023-03-26T17:53:24.817Z,100977.03
2023-03-26T17:55:52.295Z,100966.41
2023-03-26T17:58:28.150Z,100980.28
2023-03-26T18:01:27.097Z,100986.53
2023-03-26T18:03:59.128Z,101005.84
2023-03-26T18:06:37.505Z,101004.75
2023-03-26T18:09:32.881Z,101021.34
2023-03-26T18:12:15.093Z,101016.72
2023-03-26T18:15:07.962Z,101026.78
2023-03-26T18:17:41.500Z,101023.22
2023-03-26T18:20:20.495Z,101043.34
2023-03-26T18:22:47.325Z,101045.25
2023-03-26T18:25:35.095Z,101056.94
2023-03-26T18:28:02.543Z,101058.84
2023-03-26T18:30:29.434Z,101063.47
2023-03-26T18:33:05.140Z,101081.69
2023-03-26T18:35:42.273Z,101076.25
2023-03-26T18:38:17.094Z,101096.88
2023-03-26T18:40:45.779Z,101098.22
2023-03-26T18:43:32.534Z,101110.19
2023-03-26T18:46:02.610Z,101104.47
2023-03-26T18:48:29.643Z,101113.72
2023-03-26T18:51:07.073Z,101115.34
2023-03-26T18:53:41.186Z,101117.25
2023-03-26T18:56:26.132Z,101123.78
2023-03-26T18:58:52.709Z,101137.38
2023-03-26T19:01:25.831Z,101134.66
2023-03-26T19:03:54.467Z,101142.00
2023-03-26T19:06:22.046Z,101144.72
2023-03-26T19:08:50.599Z,101143.91
2023-03-26T19:11:18.130Z,101156.69
2023-03-26T19:13:50.048Z,101155.88
2023-03-26T19:16:34.019Z,101160.47
2023-03-26T19:19:05.309Z,101165.91
2023-03-26T19:21:34.463Z,101169.72
2023-03-26T19:24:02.556Z,101160.75
2023-03-26T19:26:29.625Z,101167.00
2023-03-26T19:28:58.244Z,101176.25
2023-03-26T19:31:35.403Z,101171.34
2023-03-26T19:34:14.846Z,101180.06
2023-03-26T19:36:58.301Z,101183.84
2023-03-26T19:39:37.079Z,101186.84
2023-03-26T19:42:06.505Z,101185.22
2023-03-26T19:44:33.591Z,101181.91
2023-03-26T19:47:15.013Z,101192.75
2023-03-26T19:49:57.738Z,101197.66
2023-03-26T19:52:33.277Z,101197.66
2023-03-26T19:55:24.276Z,101206.88
2023-03-26T19:57:51.745Z,101217.75
2023-03-26T20:00:19.041Z,101226.72
2023-03-26T20:02:48.865Z,101225.09
2023-03-26T20:05:27.231Z,101240.59
2023-03-26T20:07:56.994Z,101238.94
2023-03-26T20:10:24.300Z,101248.16
2023-03-26T20:12:50.869Z,101257.16
2023-03-26T20:15:27.982Z,101251.16
2023-03-26T20:17:55.543Z,101256.06
2023-03-26T20:20:26.424Z,101263.94
2023-03-26T20:22:55.879Z,101259.59
2023-03-26T20:25:33.802Z,101276.97
2023-03-26T20:28:00.435Z,101276.97
2023-03-26T20:30:37.505Z,101287.56
2023-03-26T20:33:12.184Z,101289.22
2023-03-26T20:35:40.082Z,101296.53
2023-03-26T20:38:09.387Z,101296.81
2023-03-26T20:40:36.236Z,101299.53
2023-03-26T20:43:02.771Z,101308.75
2023-03-26T20:45:29.274Z,101309.84
2023-03-26T20:47:55.797Z,101312.56
2023-03-26T20:50:26.719Z,101319.88
2023-03-26T20:52:53.341Z,101324.50
2023-03-26T20:55:21.396Z,101322.59
2023-03-26T20:57:48.593Z,101325.56
2023-03-26T21:00:18.498Z,101339.16
2023-03-26T21:02:53.502Z,101337.00
2023-03-26T21:05:24.918Z,101346.78
2023-03-26T21:07:57.212Z,101350.56
2023-03-26T21:10:26.057Z,101355.16
2023-03-26T21:13:10.990Z,101346.19
2023-03-26T21:15:37.818Z,101360.06
2023-03-26T21:18:04.785Z,101349.19
2023-03-26T21:20:34.624Z,101353.00
2023-03-26T21:23:06.943Z,101354.91
2023-03-26T21:25:45.311Z,101366.00
2023-03-26T21:28:22.173Z,101370.63
2023-03-26T21:30:52.995Z,101371.94
2023-03-26T21:33:20.407Z,101382.81
2023-03-26T21:35:53.125Z,101390.97
2023-03-26T21:38:23.925Z,101382.00
2023-03-26T21:40:58.687Z,101392.06
2023-03-26T21:43:26.117Z,101390.66
2023-03-26T21:45:55.953Z,101393.66
2023-03-26T21:48:22.781Z,101398.28
2023-03-26T21:50:49.595Z,101411.88
2023-03-26T21:53:16.646Z,101410.22
2023-03-26T21:56:06.646Z,101416.47
2023-03-26T21:58:55.594Z,101419.19
2023-03-26T22:01:30.954Z,101433.03
2023-03-26T22:04:09.435Z,101441.16
2023-03-26T22:06:46.113Z,101452.84
2023-03-26T22:09:14.993Z,101447.69
2023-03-26T22:11:43.385Z,101450.66
2023-03-26T22:14:11.878Z,101446.28
2023-03-26T22:16:38.448Z,101454.44
2023-03-26T22:19:07.273Z,101453.63
2023-03-26T22:21:33.946Z,101454.44
2023-03-26T22:24:03.901Z,101469.09
2023-03-26T22:26:31.381Z,101470.75
2023-03-26T22:28:58.462Z,101475.34
2023-03-26T22:31:26.388Z,101477.25
2023-03-26T22:33:54.876Z,101474.00
2023-03-26T22:36:23.740Z,101472.91
2023-03-26T22:38:53.687Z,101480.47
2023-03-26T22:41:21.554Z,101488.63
2023-03-26T22:43:48.135Z,101494.06
2023-03-26T22:46:15.347Z,101496.22
2023-03-26T22:48:41.969Z,101503.28
2023-03-26T22:51:09.430Z,101505.19
2023-03-26T22:53:36.533Z,101513.34
2023-03-26T22:56:03.971Z,101508.16
2023-03-26T22:58:30.562Z,101519.00
2023-03-26T23:01:08.340Z,101516.28
2023-03-26T23:03:36.916Z,101522.81
2023-03-26T23:06:06.875Z,101528.25
2023-03-26T23:08:35.025Z,101537.22
2023-03-26T23:11:02.096Z,101531.22
2023-03-26T23:13:28.641Z,101534.19
2023-03-26T23:15:57.023Z,101544.22
2023-03-26T23:18:24.253Z,101547.75
2023-03-26T23:20:58.590Z,101542.59
2023-03-26T23:23:30.934Z,101559.72
2023-03-26T23:26:01.146Z,101554.53
2023-03-26T23:28:33.121Z,101561.88
2023-03-26T23:31:05.699Z,101565.41
2023-03-26T23:33:35.470Z,101574.59
2023-03-26T23:36:09.007Z,101575.47
2023-03-26T23:38:43.442Z,101575.69
2023-03-26T23:41:15.525Z,101586.56
2023-03-26T23:43:54.295Z,101586.56
2023-03-26T23:46:30.977Z,101593.88
2023-03-26T23:48:59.957Z,101588.44
2023-03-26T23:51:27.135Z,101591.16
2023-03-26T23:53:54.059Z,101598.72
2023-03-26T23:56:20.980Z,101611.25
2023-03-26T23:58:49.007Z,101624.25
